sensor_id;sensor_type;location;lat;lon;timestamp;pressure;altitude;pressure_sealevel;temperature;humidity
70843;BME280;58469;52.312;16.970;2024-02-16T00:02:34;101178.22;;;8.55;100.00
70843;BME280;58469;52.312;16.970;2024-02-16T00:05:34;101164.13;;;8.49;100.00
70843;BME280;58469;52.312;16.970;2024-02-16T00:08:36;101172.69;;;8.43;100.00
70843;BME280;58469;52.312;16.970;2024-02-16T00:11:38;101171.25;;;8.41;100.00
70843;BME280;58469;52.312;16.970;2024-02-16T00:14:39;101174.84;;;8.40;100.00
70843;BME280;58469;52.312;16.970;2024-02-16T00:17:39;101168.41;;;8.36;100.00
70843;BME280;58469;52.312;16.970;2024-02-16T00:20:39;101173.78;;;8.34;100.00
70843;BME280;58469;52.312;16.970;2024-02-16T00:23:40;101166.78;;;8.35;100.00
70843;BME280;58469;52.312;16.970;2024-02-16T00:26:40;101169.03;;;8.38;100.00
70843;BME280;58469;52.312;16.970;2024-02-16T00:29:41;101164.25;;;8.41;100.00
70843;BME280;58469;52.312;16.970;2024-02-16T00:32:41;101156.63;;;8.40;100.00
70843;BME280;58469;52.312;16.970;2024-02-16T00:35:42;101166.09;;;8.47;100.00
70843;BME280;58469;52.312;16.970;2024-02-16T00:38:42;101158.53;;;8.52;100.00
70843;BME280;58469;52.312;16.970;2024-02-16T00:41:42;101164.38;;;8.54;100.00
70843;BME280;58469;52.312;16.970;2024-02-16T00:44:43;101156.38;;;8.56;100.00
70843;BME280;58469;52.312;16.970;2024-02-16T00:47:43;101154.38;;;8.58;100.00
70843;BME280;58469;52.312;16.970;2024-02-16T00:50:45;101161.03;;;8.60;100.00
70843;BME280;58469;52.312;16.970;2024-02-16T00:53:46;101159.41;;;8.59;100.00
70843;BME280;58469;52.312;16.970;2024-02-16T00:56:46;101159.03;;;8.62;100.00
70843;BME280;58469;52.312;16.970;2024-02-16T00:59:47;101158.06;;;8.63;100.00
70843;BME280;58469;52.312;16.970;2024-02-16T01:02:47;101156.06;;;8.65;100.00
70843;BME280;58469;52.312;16.970;2024-02-16T01:05:48;101155.06;;;8.66;100.00
70843;BME280;58469;52.312;16.970;2024-02-16T01:08:48;101155.06;;;8.66;100.00
70843;BME280;58469;52.312;16.970;2024-02-16T01:11:49;101149.44;;;8.63;100.00
70843;BME280;58469;52.312;16.970;2024-02-16T01:14:49;101162.88;;;8.66;100.00
70843;BME280;58469;52.312;16.970;2024-02-16T01:17:50;101150.06;;;8.65;100.00
70843;BME280;58469;52.312;16.970;2024-02-16T01:20:50;101146.19;;;8.61;100.00
70843;BME280;58469;52.312;16.970;2024-02-16T01:23:51;101158.00;;;8.57;100.00
70843;BME280;58469;52.312;16.970;2024-02-16T01:26:51;101151.53;;;8.53;100.00
70843;BME280;58469;52.312;16.970;2024-02-16T01:29:52;101154.53;;;8.50;100.00
70843;BME280;58469;52.312;16.970;2024-02-16T01:32:52;101150.84;;;8.44;100.00
70843;BME280;58469;52.312;16.970;2024-02-16T01:35:52;101149.16;;;8.37;100.00
70843;BME280;58469;52.312;16.970;2024-02-16T01:38:53;101147.69;;;8.27;100.00
70843;BME280;58469;52.312;16.970;2024-02-16T01:41:53;101142.34;;;8.21;100.00
70843;BME280;58469;52.312;16.970;2024-02-16T01:44:53;101135.03;;;8.10;100.00
70843;BME280;58469;52.312;16.970;2024-02-16T01:47:54;101144.19;;;8.06;100.00
70843;BME280;58469;52.312;16.970;2024-02-16T01:50:55;101132.47;;;7.95;100.00
70843;BME280;58469;52.312;16.970;2024-02-16T01:53:56;101134.34;;;7.87;100.00
70843;BME280;58469;52.312;16.970;2024-02-16T01:56:56;101139.13;;;7.83;100.00
70843;BME280;58469;52.312;16.970;2024-02-16T01:59:58;101148.94;;;7.81;100.00
70843;BME280;58469;52.312;16.970;2024-02-16T02:02:59;101138.97;;;7.70;100.00
70843;BME280;58469;52.312;16.970;2024-02-16T02:05:59;101139.34;;;7.67;100.00
70843;BME280;58469;52.312;16.970;2024-02-16T02:08:59;101150.38;;;7.69;100.00
70843;BME280;58469;52.312;16.970;2024-02-16T02:12:00;101148.56;;;7.70;100.00
70843;BME280;58469;52.312;16.970;2024-02-16T02:15:00;101139.78;;;7.71;100.00
70843;BME280;58469;52.312;16.970;2024-02-16T02:18:00;101141.94;;;7.67;100.00
70843;BME280;58469;52.312;16.970;2024-02-16T02:21:01;101145.34;;;7.68;100.00
70843;BME280;58469;52.312;16.970;2024-02-16T02:24:01;101135.09;;;7.66;100.00
70843;BME280;58469;52.312;16.970;2024-02-16T02:27:01;101131.28;;;7.62;100.00
70843;BME280;58469;52.312;16.970;2024-02-16T02:30:03;101128.22;;;7.59;100.00
70843;BME280;58469;52.312;16.970;2024-02-16T02:33:03;101135.22;;;7.58;100.00
70843;BME280;58469;52.312;16.970;2024-02-16T02:36:05;101128.41;;;7.57;100.00
70843;BME280;58469;52.312;16.970;2024-02-16T02:39:05;101127.59;;;7.57;100.00
70843;BME280;58469;52.312;16.970;2024-02-16T02:42:06;101123.72;;;7.53;100.00
70843;BME280;58469;52.312;16.970;2024-02-16T02:45:08;101109.94;;;7.52;100.00
70843;BME280;58469;52.312;16.970;2024-02-16T02:48:08;101119.16;;;7.55;100.00
70843;BME280;58469;52.312;16.970;2024-02-16T02:51:09;101121.22;;;7.59;100.00
70843;BME280;58469;52.312;16.970;2024-02-16T02:54:09;101118.44;;;7.61;100.00
70843;BME280;58469;52.312;16.970;2024-02-16T02:57:10;101120.69;;;7.64;100.00
70843;BME280;58469;52.312;16.970;2024-02-16T03:00:10;101120.50;;;7.65;100.00
70843;BME280;58469;52.312;16.970;2024-02-16T03:03:11;101124.69;;;7.66;100.00
70843;BME280;58469;52.312;16.970;2024-02-16T03:06:11;101127.94;;;7.68;100.00
70843;BME280;58469;52.312;16.970;2024-02-16T03:09:11;101130.53;;;7.68;100.00
70843;BME280;58469;52.312;16.970;2024-02-16T03:12:15;101115.94;;;7.67;100.00
70843;BME280;58469;52.312;16.970;2024-02-16T03:15:16;101123.53;;;7.69;100.00
70843;BME280;58469;52.312;16.970;2024-02-16T03:18:17;101120.31;;;7.67;100.00
70843;BME280;58469;52.312;16.970;2024-02-16T03:21:17;101124.16;;;7.71;100.00
70843;BME280;58469;52.312;16.970;2024-02-16T03:24:18;101127.66;;;7.78;100.00
70843;BME280;58469;52.312;16.970;2024-02-16T03:27:18;101127.47;;;7.79;100.00
70843;BME280;58469;52.312;16.970;2024-02-16T03:30:19;101128.91;;;7.82;100.00
70843;BME280;58469;52.312;16.970;2024-02-16T03:33:20;101132.94;;;7.84;100.00
70843;BME280;58469;52.312;16.970;2024-02-16T03:36:21;101130.53;;;7.83;100.00
70843;BME280;58469;52.312;16.970;2024-02-16T03:39:21;101125.50;;;7.81;100.00
70843;BME280;58469;52.312;16.970;2024-02-16T03:42:22;101115.63;;;7.77;100.00
70843;BME280;58469;52.312;16.970;2024-02-16T03:45:23;101119.88;;;7.78;100.00
70843;BME280;58469;52.312;16.970;2024-02-16T03:48:23;101117.25;;;7.78;100.00
70843;BME280;58469;52.312;16.970;2024-02-16T03:51:24;101118.88;;;7.79;100.00
70843;BME280;58469;52.312;16.970;2024-02-16T03:54:24;101123.25;;;7.78;100.00
70843;BME280;58469;52.312;16.970;2024-02-16T03:57:26;101123.25;;;7.78;100.00
70843;BME280;58469;52.312;16.970;2024-02-16T04:00:26;101118.03;;;7.78;100.00
70843;BME280;58469;52.312;16.970;2024-02-16T04:03:26;101121.00;;;7.75;100.00
70843;BME280;58469;52.312;16.970;2024-02-16T04:06:27;101117.34;;;7.70;100.00
70843;BME280;58469;52.312;16.970;2024-02-16T04:09:27;101120.94;;;7.69;100.00
70843;BME280;58469;52.312;16.970;2024-02-16T04:12:27;101124.53;;;7.68;100.00
70843;BME280;58469;52.312;16.970;2024-02-16T04:15:28;101121.94;;;7.68;100.00
70843;BME280;58469;52.312;16.970;2024-02-16T04:18:28;101113.69;;;7.64;100.00
70843;BME280;58469;52.312;16.970;2024-02-16T04:21:29;101112.88;;;7.64;100.00
70843;BME280;58469;52.312;16.970;2024-02-16T04:24:30;101109.38;;;7.57;100.00
70843;BME280;58469;52.312;16.970;2024-02-16T04:27:30;101106.78;;;7.57;100.00
70843;BME280;58469;52.312;16.970;2024-02-16T04:30:31;101103.09;;;7.51;100.00
70843;BME280;58469;52.312;16.970;2024-02-16T04:33:31;101098.00;;;7.43;100.00
70843;BME280;58469;52.312;16.970;2024-02-16T04:36:32;101086.91;;;7.35;100.00
70843;BME280;58469;52.312;16.970;2024-02-16T04:39:32;101088.78;;;7.26;100.00
70843;BME280;58469;52.312;16.970;2024-02-16T04:42:32;101088.69;;;7.20;100.00
70843;BME280;58469;52.312;16.970;2024-02-16T04:45:33;101095.59;;;7.12;100.00
70843;BME280;58469;52.312;16.970;2024-02-16T04:48:34;101087.84;;;7.04;100.00
70843;BME280;58469;52.312;16.970;2024-02-16T04:51:34;101089.91;;;6.94;100.00
70843;BME280;58469;52.312;16.970;2024-02-16T04:54:35;101090.00;;;6.86;100.00
70843;BME280;58469;52.312;16.970;2024-02-16T04:57:36;101096.50;;;6.82;100.00
70843;BME280;58469;52.312;16.970;2024-02-16T05:00:39;101092.03;;;6.76;100.00
70843;BME280;58469;52.312;16.970;2024-02-16T05:03:39;101082.50;;;6.69;100.00
70843;BME280;58469;52.312;16.970;2024-02-16T05:06:43;101079.28;;;6.67;100.00
70843;BME280;58469;52.312;16.970;2024-02-16T05:09:46;101079.00;;;6.62;100.00
70843;BME280;58469;52.312;16.970;2024-02-16T05:12:46;101086.19;;;6.60;100.00
70843;BME280;58469;52.312;16.970;2024-02-16T05:15:47;101078.91;;;6.55;100.00
70843;BME280;58469;52.312;16.970;2024-02-16T05:18:48;101080.25;;;6.51;100.00
70843;BME280;58469;52.312;16.970;2024-02-16T05:21:49;101080.59;;;6.48;100.00
70843;BME280;58469;52.312;16.970;2024-02-16T05:24:49;101075.75;;;6.45;100.00
70843;BME280;58469;52.312;16.970;2024-02-16T05:27:50;101073.84;;;6.39;100.00
70843;BME280;58469;52.312;16.970;2024-02-16T05:30:50;101061.38;;;6.35;100.00
70843;BME280;58469;52.312;16.970;2024-02-16T05:33:51;101069.53;;;6.32;100.00
70843;BME280;58469;52.312;16.970;2024-02-16T05:36:51;101059.22;;;6.24;100.00
70843;BME280;58469;52.312;16.970;2024-02-16T05:39:52;101063.59;;;6.23;100.00
70843;BME280;58469;52.312;16.970;2024-02-16T05:42:57;101060.72;;;6.18;100.00
70843;BME280;58469;52.312;16.970;2024-02-16T05:45:58;101062.84;;;6.15;100.00
70843;BME280;58469;52.312;16.970;2024-02-16T05:48:58;101070.97;;;6.12;100.00
70843;BME280;58469;52.312;16.970;2024-02-16T05:51:59;101075.88;;;6.07;100.00
70843;BME280;58469;52.312;16.970;2024-02-16T05:55:18;101076.38;;;6.02;100.00
70843;BME280;58469;52.312;16.970;2024-02-16T05:58:21;101070.72;;;5.98;100.00
70843;BME280;58469;52.312;16.970;2024-02-16T06:01:23;101074.00;;;5.92;100.00
70843;BME280;58469;52.312;16.970;2024-02-16T06:04:23;101080.50;;;5.88;100.00
70843;BME280;58469;52.312;16.970;2024-02-16T06:07:23;101091.22;;;5.85;100.00
70843;BME280;58469;52.312;16.970;2024-02-16T06:10:24;101098.84;;;5.87;100.00
70843;BME280;58469;52.312;16.970;2024-02-16T06:13:25;101093.66;;;5.87;100.00
70843;BME280;58469;52.312;16.970;2024-02-16T06:16:25;101083.09;;;5.88;100.00
70843;BME280;58469;52.312;16.970;2024-02-16T06:19:26;101099.31;;;5.90;100.00
70843;BME280;58469;52.312;16.970;2024-02-16T06:22:26;101089.75;;;5.91;100.00
70843;BME280;58469;52.312;16.970;2024-02-16T06:25:27;101092.00;;;5.94;100.00
70843;BME280;58469;52.312;16.970;2024-02-16T06:28:27;101097.00;;;5.95;100.00
70843;BME280;58469;52.312;16.970;2024-02-16T06:31:27;101098.94;;;6.02;100.00
70843;BME280;58469;52.312;16.970;2024-02-16T06:34:29;101092.88;;;6.09;100.00
70843;BME280;58469;52.312;16.970;2024-02-16T06:37:30;101087.03;;;6.07;100.00
70843;BME280;58469;52.312;16.970;2024-02-16T06:40:32;101091.72;;;6.12;100.00
70843;BME280;58469;52.312;16.970;2024-02-16T06:43:32;101103.19;;;6.17;100.00
70843;BME280;58469;52.312;16.970;2024-02-16T06:46:32;101106.41;;;6.19;100.00
70843;BME280;58469;52.312;16.970;2024-02-16T06:49:33;101102.69;;;6.22;100.00
70843;BME280;58469;52.312;16.970;2024-02-16T06:52:33;101105.28;;;6.22;100.00
70843;BME280;58469;52.312;16.970;2024-02-16T06:55:34;101111.88;;;6.32;100.00
70843;BME280;58469;52.312;16.970;2024-02-16T06:58:34;101108.09;;;6.35;100.00
70843;BME280;58469;52.312;16.970;2024-02-16T07:01:36;101104.81;;;6.41;100.00
70843;BME280;58469;52.312;16.970;2024-02-16T07:04:39;101103.03;;;6.41;100.00
70843;BME280;58469;52.312;16.970;2024-02-16T07:07:40;101103.44;;;6.53;100.00
70843;BME280;58469;52.312;16.970;2024-02-16T07:10:40;101093.66;;;6.55;100.00
70843;BME280;58469;52.312;16.970;2024-02-16T07:13:41;101105.97;;;6.61;100.00
70843;BME280;58469;52.312;16.970;2024-02-16T07:16:43;101102.66;;;6.67;100.00
70843;BME280;58469;52.312;16.970;2024-02-16T07:19:43;101095.28;;;6.78;100.00
70843;BME280;58469;52.312;16.970;2024-02-16T07:22:44;101097.97;;;6.85;100.00
70843;BME280;58469;52.312;16.970;2024-02-16T07:25:46;101107.47;;;6.92;100.00
70843;BME280;58469;52.312;16.970;2024-02-16T07:28:46;101094.22;;;7.02;100.00
70843;BME280;58469;52.312;16.970;2024-02-16T07:31:47;101098.97;;;7.13;100.00
70843;BME280;58469;52.312;16.970;2024-02-16T07:34:47;101085.53;;;7.24;100.00
70843;BME280;58469;52.312;16.970;2024-02-16T07:37:48;101080.50;;;7.37;100.00
70843;BME280;58469;52.312;16.970;2024-02-16T07:40:49;101074.88;;;7.48;100.00
70843;BME280;58469;52.312;16.970;2024-02-16T07:43:50;101076.03;;;7.60;100.00
70843;BME280;58469;52.312;16.970;2024-02-16T07:46:51;101070.19;;;7.73;100.00
70843;BME280;58469;52.312;16.970;2024-02-16T07:49:52;101069.50;;;7.85;100.00
70843;BME280;58469;52.312;16.970;2024-02-16T07:52:53;101072.78;;;7.94;100.00
70843;BME280;58469;52.312;16.970;2024-02-16T07:55:53;101069.16;;;8.09;100.00
70843;BME280;58469;52.312;16.970;2024-02-16T07:58:54;101065.06;;;8.21;100.00
70843;BME280;58469;52.312;16.970;2024-02-16T08:01:54;101068.69;;;8.42;100.00
70843;BME280;58469;52.312;16.970;2024-02-16T08:04:54;101071.66;;;8.60;100.00
70843;BME280;58469;52.312;16.970;2024-02-16T08:07:55;101072.13;;;8.70;100.00
70843;BME280;58469;52.312;16.970;2024-02-16T08:10:56;101075.59;;;8.77;100.00
70843;BME280;58469;52.312;16.970;2024-02-16T08:13:56;101071.25;;;8.84;100.00
70843;BME280;58469;52.312;16.970;2024-02-16T08:17:00;101074.34;;;9.00;100.00
70843;BME280;58469;52.312;16.970;2024-02-16T08:20:01;101067.56;;;9.06;100.00
70843;BME280;58469;52.312;16.970;2024-02-16T08:23:01;101069.88;;;9.22;100.00
70843;BME280;58469;52.312;16.970;2024-02-16T08:26:01;101070.34;;;9.32;100.00
70843;BME280;58469;52.312;16.970;2024-02-16T08:29:02;101066.81;;;9.46;98.98
70843;BME280;58469;52.312;16.970;2024-02-16T08:32:02;101068.00;;;9.50;97.51
70843;BME280;58469;52.312;16.970;2024-02-16T08:35:04;101063.84;;;9.62;97.87
70843;BME280;58469;52.312;16.970;2024-02-16T08:38:05;101051.22;;;9.72;96.99
70843;BME280;58469;52.312;16.970;2024-02-16T08:41:10;101054.03;;;9.77;95.15
70843;BME280;58469;52.312;16.970;2024-02-16T08:44:10;101053.69;;;9.87;94.94
70843;BME280;58469;52.312;16.970;2024-02-16T08:47:10;101050.69;;;9.90;94.08
70843;BME280;58469;52.312;16.970;2024-02-16T08:50:11;101048.91;;;10.03;94.20
70843;BME280;58469;52.312;16.970;2024-02-16T08:53:12;101038.69;;;10.08;92.52
70843;BME280;58469;52.312;16.970;2024-02-16T08:56:14;101042.31;;;10.20;92.80
70843;BME280;58469;52.312;16.970;2024-02-16T08:59:14;101044.78;;;10.28;92.29
70843;BME280;58469;52.312;16.970;2024-02-16T09:02:14;101042.16;;;10.35;91.26
70843;BME280;58469;52.312;16.970;2024-02-16T09:05:15;101045.94;;;10.39;90.89
70843;BME280;58469;52.312;16.970;2024-02-16T09:08:15;101049.56;;;10.51;89.57
70843;BME280;58469;52.312;16.970;2024-02-16T09:11:16;101048.38;;;10.60;90.26
70843;BME280;58469;52.312;16.970;2024-02-16T09:14:17;101048.56;;;10.65;89.54
70843;BME280;58469;52.312;16.970;2024-02-16T09:17:18;101051.38;;;10.77;90.86
70843;BME280;58469;52.312;16.970;2024-02-16T09:20:20;101050.97;;;10.86;89.88
70843;BME280;58469;52.312;16.970;2024-02-16T09:23:22;101040.50;;;10.93;89.76
70843;BME280;58469;52.312;16.970;2024-02-16T09:26:32;101050.34;;;11.04;90.49
70843;BME280;58469;52.312;16.970;2024-02-16T09:29:33;101044.06;;;11.11;89.34
70843;BME280;58469;52.312;16.970;2024-02-16T09:32:34;101039.19;;;11.21;90.33
70843;BME280;58469;52.312;16.970;2024-02-16T09:35:34;101045.63;;;11.32;89.61
70843;BME280;58469;52.312;16.970;2024-02-16T09:38:34;101046.38;;;11.45;87.38
70843;BME280;58469;52.312;16.970;2024-02-16T09:41:35;101042.72;;;11.53;85.53
70843;BME280;58469;52.312;16.970;2024-02-16T09:44:38;101047.94;;;11.59;85.56
70843;BME280;58469;52.312;16.970;2024-02-16T09:47:40;101052.38;;;11.65;84.59
70843;BME280;58469;52.312;16.970;2024-02-16T09:50:42;101050.31;;;11.74;82.05
70843;BME280;58469;52.312;16.970;2024-02-16T09:53:42;101040.41;;;11.76;82.65
70843;BME280;58469;52.312;16.970;2024-02-16T09:56:43;101047.41;;;11.89;82.33
70843;BME280;58469;52.312;16.970;2024-02-16T09:59:45;101045.56;;;11.96;81.96
70843;BME280;58469;52.312;16.970;2024-02-16T10:02:46;101040.09;;;11.97;82.01
70843;BME280;58469;52.312;16.970;2024-02-16T10:05:46;101054.94;;;12.10;81.97
70843;BME280;58469;52.312;16.970;2024-02-16T10:08:56;101044.63;;;12.15;80.74
70843;BME280;58469;52.312;16.970;2024-02-16T10:12:00;101041.56;;;12.18;79.94
70843;BME280;58469;52.312;16.970;2024-02-16T10:15:00;101031.25;;;12.23;80.04
70843;BME280;58469;52.312;16.970;2024-02-16T10:18:05;101014.88;;;12.27;77.80
70843;BME280;58469;52.312;16.970;2024-02-16T10:21:06;101023.72;;;12.33;77.17
70843;BME280;58469;52.312;16.970;2024-02-16T10:24:09;101021.03;;;12.39;74.45
70843;BME280;58469;52.312;16.970;2024-02-16T10:27:16;101020.41;;;12.44;75.09
70843;BME280;58469;52.312;16.970;2024-02-16T10:30:17;101010.63;;;12.57;75.39
70843;BME280;58469;52.312;16.970;2024-02-16T10:33:18;101014.78;;;12.65;76.25
70843;BME280;58469;52.312;16.970;2024-02-16T10:36:19;101004.25;;;12.71;76.71
70843;BME280;58469;52.312;16.970;2024-02-16T10:39:20;101002.75;;;12.75;76.78
70843;BME280;58469;52.312;16.970;2024-02-16T10:42:21;101004.38;;;12.76;76.57
70843;BME280;58469;52.312;16.970;2024-02-16T10:45:23;101008.97;;;12.81;77.08
70843;BME280;58469;52.312;16.970;2024-02-16T10:48:24;101001.53;;;12.96;76.46
70843;BME280;58469;52.312;16.970;2024-02-16T10:51:35;100979.41;;;13.10;71.92
70843;BME280;58469;52.312;16.970;2024-02-16T10:54:37;100981.09;;;13.23;73.75
70843;BME280;58469;52.312;16.970;2024-02-16T10:57:39;100977.44;;;13.24;73.00
70843;BME280;58469;52.312;16.970;2024-02-16T11:00:53;100974.94;;;13.29;73.97
70843;BME280;58469;52.312;16.970;2024-02-16T11:04:01;100969.59;;;13.35;73.15
70843;BME280;58469;52.312;16.970;2024-02-16T11:10:13;100969.59;;;13.53;73.30
70843;BME280;58469;52.312;16.970;2024-02-16T11:13:22;100969.16;;;13.68;72.47
70843;BME280;58469;52.312;16.970;2024-02-16T11:16:22;100966.72;;;13.84;73.00
70843;BME280;58469;52.312;16.970;2024-02-16T11:19:24;100965.84;;;14.02;71.49
70843;BME280;58469;52.312;16.970;2024-02-16T11:22:26;100973.06;;;14.18;71.83
70843;BME280;58469;52.312;16.970;2024-02-16T11:25:31;100963.50;;;14.35;70.58
70843;BME280;58469;52.312;16.970;2024-02-16T11:28:33;100963.81;;;14.50;71.53
70843;BME280;58469;52.312;16.970;2024-02-16T11:31:34;100956.06;;;14.67;71.71
70843;BME280;58469;52.312;16.970;2024-02-16T11:34:35;100943.78;;;14.84;71.79
70843;BME280;58469;52.312;16.970;2024-02-16T11:37:38;100937.34;;;14.91;69.16
70843;BME280;58469;52.312;16.970;2024-02-16T11:40:38;100936.19;;;14.99;70.09
70843;BME280;58469;52.312;16.970;2024-02-16T11:43:38;100922.78;;;15.00;69.17
70843;BME280;58469;52.312;16.970;2024-02-16T11:46:39;100923.00;;;15.10;69.40
70843;BME280;58469;52.312;16.970;2024-02-16T11:49:39;100919.19;;;15.18;68.42
70843;BME280;58469;52.312;16.970;2024-02-16T11:52:40;100931.66;;;15.22;67.28
70843;BME280;58469;52.312;16.970;2024-02-16T11:55:46;100917.72;;;15.22;68.00
70843;BME280;58469;52.312;16.970;2024-02-16T11:58:47;100928.53;;;15.25;67.22
70843;BME280;58469;52.312;16.970;2024-02-16T12:01:55;100919.06;;;15.24;67.54
70843;BME280;58469;52.312;16.970;2024-02-16T12:04:59;100925.38;;;15.23;65.97
70843;BME280;58469;52.312;16.970;2024-02-16T12:08:00;100918.97;;;15.19;66.67
70843;BME280;58469;52.312;16.970;2024-02-16T12:11:02;100911.78;;;15.15;66.91
70843;BME280;58469;52.312;16.970;2024-02-16T12:14:02;100911.63;;;15.21;67.81
70843;BME280;58469;52.312;16.970;2024-02-16T12:17:03;100904.97;;;15.30;67.72
70843;BME280;58469;52.312;16.970;2024-02-16T12:20:11;100904.00;;;15.37;68.15
70843;BME280;58469;52.312;16.970;2024-02-16T12:23:12;100897.84;;;15.31;65.76
70843;BME280;58469;52.312;16.970;2024-02-16T12:26:15;100892.91;;;15.34;67.17
70843;BME280;58469;52.312;16.970;2024-02-16T12:29:16;100881.78;;;15.32;64.48
70843;BME280;58469;52.312;16.970;2024-02-16T12:32:24;100884.34;;;15.27;64.74
70843;BME280;58469;52.312;16.970;2024-02-16T12:35:25;100885.72;;;15.30;64.96
70843;BME280;58469;52.312;16.970;2024-02-16T12:38:25;100896.00;;;15.31;65.04
70843;BME280;58469;52.312;16.970;2024-02-16T12:41:32;100896.59;;;15.33;65.32
70843;BME280;58469;52.312;16.970;2024-02-16T12:44:33;100896.50;;;15.28;64.85
70843;BME280;58469;52.312;16.970;2024-02-16T12:47:36;100898.56;;;15.26;65.28
70843;BME280;58469;52.312;16.970;2024-02-16T12:50:37;100896.63;;;15.22;65.08
70843;BME280;58469;52.312;16.970;2024-02-16T12:53:39;100887.94;;;15.21;65.96
70843;BME280;58469;52.312;16.970;2024-02-16T12:56:43;100887.47;;;15.24;66.81
70843;BME280;58469;52.312;16.970;2024-02-16T12:59:47;100891.13;;;15.23;66.00
70843;BME280;58469;52.312;16.970;2024-02-16T13:02:49;100896.59;;;15.33;66.22
70843;BME280;58469;52.312;16.970;2024-02-16T13:05:49;100888.03;;;15.26;64.87
70843;BME280;58469;52.312;16.970;2024-02-16T13:08:50;100890.91;;;15.25;64.35
70843;BME280;58469;52.312;16.970;2024-02-16T13:11:54;100876.69;;;15.26;63.36
70843;BME280;58469;52.312;16.970;2024-02-16T13:14:54;100879.00;;;15.22;63.46
70843;BME280;58469;52.312;16.970;2024-02-16T13:17:55;100877.72;;;15.25;63.80
70843;BME280;58469;52.312;16.970;2024-02-16T13:20:55;100868.31;;;15.29;64.67
70843;BME280;58469;52.312;16.970;2024-02-16T13:23:56;100867.38;;;15.35;63.68
70843;BME280;58469;52.312;16.970;2024-02-16T13:26:56;100871.50;;;15.31;63.43
70843;BME280;58469;52.312;16.970;2024-02-16T13:29:57;100860.22;;;15.19;64.57
70843;BME280;58469;52.312;16.970;2024-02-16T13:32:57;100862.59;;;15.04;65.82
70843;BME280;58469;52.312;16.970;2024-02-16T13:35:58;100857.63;;;14.91;66.55
70843;BME280;58469;52.312;16.970;2024-02-16T13:38:59;100859.06;;;14.70;66.68
70843;BME280;58469;52.312;16.970;2024-02-16T13:41:59;100863.47;;;14.53;67.34
70843;BME280;58469;52.312;16.970;2024-02-16T13:45:00;100855.47;;;14.37;67.88
70843;BME280;58469;52.312;16.970;2024-02-16T13:48:09;100855.34;;;14.32;68.72
70843;BME280;58469;52.312;16.970;2024-02-16T13:51:09;100857.50;;;14.23;68.30
70843;BME280;58469;52.312;16.970;2024-02-16T13:54:09;100852.16;;;14.18;68.56
70843;BME280;58469;52.312;16.970;2024-02-16T13:57:10;100857.16;;;14.19;68.12
70843;BME280;58469;52.312;16.970;2024-02-16T14:00:11;100847.59;;;14.13;68.15
70843;BME280;58469;52.312;16.970;2024-02-16T14:03:14;100849.63;;;14.11;68.63
70843;BME280;58469;52.312;16.970;2024-02-16T14:06:14;100851.81;;;14.14;68.93
70843;BME280;58469;52.312;16.970;2024-02-16T14:09:14;100861.19;;;14.22;69.97
70843;BME280;58469;52.312;16.970;2024-02-16T14:12:15;100860.38;;;14.22;69.90
70843;BME280;58469;52.312;16.970;2024-02-16T14:15:16;100859.69;;;14.26;69.91
70843;BME280;58469;52.312;16.970;2024-02-16T14:18:16;100856.28;;;14.26;70.39
70843;BME280;58469;52.312;16.970;2024-02-16T14:21:19;100862.19;;;14.21;70.25
70843;BME280;58469;52.312;16.970;2024-02-16T14:24:19;100846.53;;;14.14;69.97
70843;BME280;58469;52.312;16.970;2024-02-16T14:27:20;100850.31;;;14.18;70.28
70843;BME280;58469;52.312;16.970;2024-02-16T14:30:21;100857.88;;;14.15;70.43
70843;BME280;58469;52.312;16.970;2024-02-16T14:33:21;100850.78;;;14.15;70.84
70843;BME280;58469;52.312;16.970;2024-02-16T14:36:21;100857.06;;;14.14;70.71
70843;BME280;58469;52.312;16.970;2024-02-16T14:39:22;100854.78;;;14.06;71.30
70843;BME280;58469;52.312;16.970;2024-02-16T14:42:26;100851.34;;;14.06;71.73
70843;BME280;58469;52.312;16.970;2024-02-16T14:45:28;100857.19;;;13.96;71.80
70843;BME280;58469;52.312;16.970;2024-02-16T14:48:28;100850.78;;;13.92;72.38
70843;BME280;58469;52.312;16.970;2024-02-16T14:51:29;100851.59;;;13.81;72.20
70843;BME280;58469;52.312;16.970;2024-02-16T14:54:29;100860.13;;;13.77;72.35
70843;BME280;58469;52.312;16.970;2024-02-16T14:57:29;100843.09;;;13.68;72.20
70843;BME280;58469;52.312;16.970;2024-02-16T15:00:30;100849.50;;;13.60;73.39
70843;BME280;58469;52.312;16.970;2024-02-16T15:03:30;100846.41;;;13.52;73.92
70843;BME280;58469;52.312;16.970;2024-02-16T15:06:31;100841.50;;;13.44;73.94
70843;BME280;58469;52.312;16.970;2024-02-16T15:09:35;100831.06;;;13.37;73.54
70843;BME280;58469;52.312;16.970;2024-02-16T15:12:35;100827.31;;;13.33;73.97
70843;BME280;58469;52.312;16.970;2024-02-16T15:15:36;100826.63;;;13.26;74.22
70843;BME280;58469;52.312;16.970;2024-02-16T15:18:36;100817.56;;;13.22;74.16
70843;BME280;58469;52.312;16.970;2024-02-16T15:21:36;100824.09;;;13.20;74.10
70843;BME280;58469;52.312;16.970;2024-02-16T15:24:37;100828.84;;;13.11;74.58
70843;BME280;58469;52.312;16.970;2024-02-16T15:27:38;100830.91;;;13.09;75.70
70843;BME280;58469;52.312;16.970;2024-02-16T15:30:38;100844.38;;;13.13;73.83
70843;BME280;58469;52.312;16.970;2024-02-16T15:33:39;100834.47;;;13.15;73.94
70843;BME280;58469;52.312;16.970;2024-02-16T15:36:39;100822.56;;;13.12;74.12
70843;BME280;58469;52.312;16.970;2024-02-16T15:39:41;100831.91;;;13.08;74.71